Terminal Aerodrome Forecast
Issued by NWS Chicago, IL

Home | Current Version | Previous Version | Graphics & Text | Print | Product List | Glossary On
Versions: 1 2 3 4 5 6 7 8 9 10 11 12 13 14 15 16 17 18 19 20 21 22 23 24
000
FTUS43 KLOT 260325 AAA
TAFRFD
TAF AMD
KRFD 260325Z 2603/2624 18004KT P6SM BKN250
     FM260800 19004KT 4SM BR FEW020 BKN250
     FM261400 22009KT P6SM SCT035 BKN250=

USA.gov is the U.S. government's official web portal to all federal, state and local government web resources and services.